createdAt,value
2019-02-02T00:00:41.394Z,0.00
2019-02-02T00:01:41.382Z,0.00
2019-02-02T00:02:41.362Z,0.00
2019-02-02T00:03:41.341Z,0.00
2019-02-02T00:04:41.327Z,0.00
2019-02-02T00:05:41.318Z,0.00
2019-02-02T00:06:41.289Z,0.00
2019-02-02T00:07:41.271Z,0.00
2019-02-02T00:08:41.258Z,0.00
2019-02-02T00:09:41.238Z,0.00
2019-02-02T00:10:41.221Z,0.00
2019-02-02T00:11:41.205Z,0.00
2019-02-02T00:12:41.185Z,0.00
2019-02-02T00:13:41.164Z,0.00
2019-02-02T00:14:41.154Z,0.00
2019-02-02T00:15:41.135Z,0.00
2019-02-02T00:16:41.112Z,0.00
2019-02-02T00:17:41.097Z,0.00
2019-02-02T00:18:41.094Z,0.00
2019-02-02T00:19:41.067Z,0.00
2019-02-02T00:20:41.050Z,0.00
2019-02-02T00:21:41.029Z,0.00
2019-02-02T00:22:41.010Z,0.00
2019-02-02T00:23:40.996Z,0.00
2019-02-02T00:24:41.114Z,0.00
2019-02-02T00:25:40.955Z,0.00
2019-02-02T00:26:40.943Z,0.00
2019-02-02T00:27:41.810Z,0.00
2019-02-02T00:28:40.907Z,0.00
2019-02-02T00:29:40.895Z,0.00
2019-02-02T00:30:40.876Z,0.00
2019-02-02T00:31:40.861Z,0.00
2019-02-02T00:32:40.838Z,0.00
2019-02-02T00:33:40.821Z,0.00
2019-02-02T00:34:40.801Z,0.00
2019-02-02T00:35:40.793Z,0.00
2019-02-02T00:36:40.769Z,0.00
2019-02-02T00:37:40.752Z,0.00
2019-02-02T00:38:40.754Z,0.00
2019-02-02T00:39:40.724Z,0.00
2019-02-02T00:40:40.704Z,0.00
2019-02-02T00:41:40.684Z,0.00
2019-02-02T00:42:40.664Z,0.00
2019-02-02T00:43:40.669Z,0.00
2019-02-02T00:44:40.642Z,0.00
2019-02-02T00:45:40.610Z,0.00
2019-02-02T00:46:40.593Z,0.00
2019-02-02T00:47:40.579Z,0.00
2019-02-02T00:48:40.562Z,0.00
2019-02-02T00:49:40.543Z,0.00
2019-02-02T00:50:40.528Z,0.00
2019-02-02T00:51:40.507Z,0.00
2019-02-02T00:52:40.491Z,0.00
2019-02-02T00:53:40.485Z,0.00
2019-02-02T00:54:40.458Z,0.00
2019-02-02T00:55:40.442Z,0.00
2019-02-02T00:56:40.425Z,0.00
2019-02-02T00:57:40.406Z,0.00
2019-02-02T00:58:40.409Z,0.00
2019-02-02T00:59:40.368Z,0.00
2019-02-02T01:00:40.348Z,0.00
2019-02-02T01:01:40.334Z,0.00
2019-02-02T01:02:40.320Z,0.00
2019-02-02T01:03:40.300Z,0.00
2019-02-02T01:04:40.285Z,0.00
2019-02-02T01:05:40.268Z,0.00
2019-02-02T01:06:40.247Z,0.00
2019-02-02T01:07:40.236Z,0.00
2019-02-02T01:08:40.216Z,0.00
2019-02-02T01:09:40.196Z,0.00
2019-02-02T01:10:40.174Z,0.00
2019-02-02T01:11:40.162Z,0.00
2019-02-02T01:12:40.146Z,0.00
2019-02-02T01:13:40.138Z,0.00
2019-02-02T01:14:40.114Z,0.00
2019-02-02T01:15:40.099Z,0.00
2019-02-02T01:16:40.074Z,0.00
2019-02-02T01:17:40.054Z,0.00
2019-02-02T01:18:40.056Z,0.00
2019-02-02T01:19:40.017Z,0.00
2019-02-02T01:20:40.007Z,0.00
2019-02-02T01:21:39.989Z,0.00
2019-02-02T01:22:39.969Z,0.00
2019-02-02T01:23:39.951Z,0.00
2019-02-02T01:24:39.937Z,0.00
2019-02-02T01:25:39.920Z,0.00
2019-02-02T01:26:39.902Z,0.00
2019-02-02T01:27:39.889Z,0.00
2019-02-02T01:28:39.866Z,0.00
2019-02-02T01:29:39.844Z,0.00
2019-02-02T01:30:39.828Z,0.00
2019-02-02T01:31:39.822Z,0.00
2019-02-02T01:32:39.804Z,0.00
2019-02-02T01:33:39.775Z,0.00
2019-02-02T01:34:39.794Z,0.00
2019-02-02T01:35:39.739Z,0.00
2019-02-02T01:36:39.723Z,0.00
2019-02-02T01:37:39.707Z,0.00
2019-02-02T01:38:39.693Z,0.00
2019-02-02T01:39:39.680Z,0.00
2019-02-02T01:40:39.655Z,0.00
2019-02-02T01:41:39.640Z,0.00
2019-02-02T01:42:39.616Z,0.00
2019-02-02T01:43:39.604Z,0.00
2019-02-02T01:44:39.585Z,0.00
2019-02-02T01:45:39.570Z,0.00
2019-02-02T01:46:39.550Z,0.00
2019-02-02T01:47:39.534Z,0.00
2019-02-02T01:48:39.517Z,0.00
2019-02-02T01:49:39.493Z,0.00
2019-02-02T01:50:39.477Z,0.00
2019-02-02T01:51:39.459Z,0.00
2019-02-02T01:52:39.447Z,0.00
2019-02-02T01:53:39.550Z,0.00
2019-02-02T01:54:39.410Z,0.00
2019-02-02T01:55:39.395Z,0.00
2019-02-02T01:56:39.374Z,0.00
2019-02-02T01:57:39.357Z,0.00
2019-02-02T01:58:39.343Z,0.00
2019-02-02T01:59:39.329Z,0.00
2019-02-02T02:00:39.303Z,0.00
2019-02-02T02:01:41.632Z,0.00
2019-02-02T02:02:39.271Z,0.00
2019-02-02T02:03:39.255Z,0.00
2019-02-02T02:04:39.240Z,0.00
2019-02-02T02:05:39.216Z,0.00
2019-02-02T02:06:39.203Z,0.00
2019-02-02T02:07:39.186Z,0.00
2019-02-02T02:08:39.165Z,0.00
2019-02-02T02:09:39.149Z,0.00
2019-02-02T02:10:39.130Z,0.00
2019-02-02T02:11:39.119Z,0.00
2019-02-02T02:12:39.099Z,0.00
2019-02-02T02:13:39.082Z,0.00
2019-02-02T02:14:39.062Z,0.00
2019-02-02T02:15:39.047Z,0.00
2019-02-02T02:16:39.028Z,0.00
2019-02-02T02:17:39.010Z,0.00
2019-02-02T02:18:38.988Z,0.00
2019-02-02T02:19:38.983Z,0.00
2019-02-02T02:20:38.956Z,0.00
2019-02-02T02:21:38.939Z,0.00
2019-02-02T02:22:41.146Z,0.00
2019-02-02T02:23:38.905Z,0.00
2019-02-02T02:24:38.887Z,0.00
2019-02-02T02:25:38.873Z,0.00
2019-02-02T02:26:38.853Z,0.00
2019-02-02T02:27:38.842Z,0.00
2019-02-02T02:28:38.822Z,0.00
2019-02-02T02:29:38.796Z,0.00
2019-02-02T02:30:38.784Z,0.00
2019-02-02T02:31:38.768Z,0.00
2019-02-02T02:32:38.753Z,0.00
2019-02-02T02:33:38.734Z,0.00
2019-02-02T02:34:38.712Z,0.00
2019-02-02T02:35:38.703Z,0.00
2019-02-02T02:36:38.682Z,0.00
2019-02-02T02:37:38.661Z,0.00
2019-02-02T02:38:38.639Z,0.00
2019-02-02T02:39:38.629Z,0.00
2019-02-02T02:40:38.611Z,0.00
2019-02-02T02:41:38.594Z,0.00
2019-02-02T02:42:38.571Z,0.00
2019-02-02T02:43:38.563Z,0.00
2019-02-02T02:44:38.547Z,0.00
2019-02-02T02:45:38.526Z,0.00
2019-02-02T02:46:38.509Z,0.00
2019-02-02T02:47:38.495Z,0.00
2019-02-02T02:48:38.477Z,0.00
2019-02-02T02:49:38.456Z,0.00
2019-02-02T02:50:38.436Z,0.00
2019-02-02T02:51:38.424Z,0.00
2019-02-02T02:52:38.400Z,0.00
2019-02-02T02:53:38.386Z,0.00
2019-02-02T02:54:38.371Z,0.00
2019-02-02T02:55:38.356Z,0.00
2019-02-02T02:56:38.333Z,0.00
2019-02-02T02:57:38.318Z,0.00
2019-02-02T02:58:41.703Z,0.00
2019-02-02T02:59:38.286Z,0.00
2019-02-02T03:00:38.261Z,0.00
2019-02-02T03:01:38.245Z,0.00
2019-02-02T03:02:38.236Z,0.00
2019-02-02T03:03:38.218Z,0.00
2019-02-02T03:04:38.198Z,0.00
2019-02-02T03:05:38.179Z,0.00
2019-02-02T03:06:38.160Z,0.00
2019-02-02T03:07:38.147Z,0.00
2019-02-02T03:08:38.127Z,0.00
2019-02-02T03:09:38.113Z,0.00
2019-02-02T03:10:38.095Z,0.00
2019-02-02T03:11:38.078Z,0.00
2019-02-02T03:12:38.064Z,0.00
2019-02-02T03:13:38.042Z,0.00
2019-02-02T03:14:38.022Z,0.00
2019-02-02T03:15:38.006Z,0.00
2019-02-02T03:16:37.987Z,0.00
2019-02-02T03:17:37.982Z,0.00
2019-02-02T03:18:37.965Z,0.00
2019-02-02T03:19:37.941Z,0.00
2019-02-02T03:20:37.931Z,0.00
2019-02-02T03:21:37.895Z,0.00
2019-02-02T03:22:37.883Z,0.00
2019-02-02T03:23:37.864Z,0.00
2019-02-02T03:24:37.866Z,0.00
2019-02-02T03:25:37.844Z,0.00
2019-02-02T03:26:37.818Z,0.00
2019-02-02T03:27:37.797Z,0.00
2019-02-02T03:28:37.784Z,0.00
2019-02-02T03:29:37.767Z,0.00
2019-02-02T03:30:37.747Z,0.00
2019-02-02T03:31:37.735Z,0.00
2019-02-02T03:32:37.717Z,0.00
2019-02-02T03:33:37.697Z,0.00
2019-02-02T03:34:37.679Z,0.00
2019-02-02T03:35:37.664Z,0.00
2019-02-02T03:36:37.646Z,0.00
2019-02-02T03:37:37.641Z,0.00
2019-02-02T03:38:37.609Z,0.00
2019-02-02T03:39:37.593Z,0.00
2019-02-02T03:40:37.578Z,0.00
2019-02-02T03:41:37.558Z,0.00
2019-02-02T03:42:37.540Z,0.00
2019-02-02T03:43:37.527Z,0.00
2019-02-02T03:44:37.506Z,0.00
2019-02-02T03:45:40.652Z,0.00
2019-02-02T03:46:37.473Z,0.00
2019-02-02T03:47:37.454Z,0.00
2019-02-02T03:48:37.435Z,0.00
2019-02-02T03:49:37.416Z,0.00
2019-02-02T03:50:37.403Z,0.00
2019-02-02T03:51:37.389Z,0.00
2019-02-02T03:52:37.377Z,0.00
2019-02-02T03:53:37.348Z,0.00
2019-02-02T03:54:37.336Z,0.00
2019-02-02T03:55:37.314Z,0.00
2019-02-02T03:56:37.294Z,0.00
2019-02-02T03:57:37.283Z,0.00
2019-02-02T03:58:37.265Z,0.00
2019-02-02T03:59:37.253Z,0.00
2019-02-02T04:00:37.228Z,0.00
2019-02-02T04:01:37.208Z,0.00
2019-02-02T04:02:37.204Z,0.00
2019-02-02T04:03:37.177Z,0.00
2019-02-02T04:04:37.161Z,0.00
2019-02-02T04:05:37.141Z,0.00
2019-02-02T04:06:37.129Z,0.00
2019-02-02T04:07:37.110Z,0.00
2019-02-02T04:08:37.090Z,0.00
2019-02-02T04:09:37.074Z,0.00
2019-02-02T04:10:37.052Z,0.00
2019-02-02T04:11:37.040Z,0.00
2019-02-02T04:12:37.022Z,0.00
2019-02-02T04:13:37.000Z,0.00
2019-02-02T04:14:36.987Z,0.00
2019-02-02T04:15:36.962Z,0.00
2019-02-02T04:16:36.951Z,0.00
2019-02-02T04:17:36.932Z,0.00
2019-02-02T04:18:36.914Z,0.00
2019-02-02T04:19:36.898Z,0.00
2019-02-02T04:20:36.884Z,0.00
2019-02-02T04:21:36.868Z,0.00
2019-02-02T04:22:36.845Z,0.00
2019-02-02T04:23:36.831Z,0.00
2019-02-02T04:24:36.809Z,0.00
2019-02-02T04:25:36.795Z,0.00
2019-02-02T04:26:36.774Z,0.00
2019-02-02T04:27:36.760Z,0.00
2019-02-02T04:28:36.746Z,0.00
2019-02-02T04:29:36.726Z,0.00
2019-02-02T04:30:36.706Z,0.00
2019-02-02T04:31:36.694Z,0.00
2019-02-02T04:32:36.674Z,0.00
2019-02-02T04:33:36.654Z,0.00
2019-02-02T04:34:36.640Z,0.00
2019-02-02T04:35:36.619Z,0.00
2019-02-02T04:36:36.606Z,0.00
2019-02-02T04:37:38.290Z,0.00
2019-02-02T04:38:36.567Z,0.00
2019-02-02T04:39:36.551Z,0.00
2019-02-02T04:40:36.536Z,0.00
2019-02-02T04:41:36.513Z,0.00
2019-02-02T04:42:36.503Z,0.00
2019-02-02T04:43:36.485Z,0.00
2019-02-02T04:44:36.467Z,0.00
2019-02-02T04:45:36.449Z,0.00
2019-02-02T04:46:36.432Z,0.00
2019-02-02T04:47:36.418Z,0.00
2019-02-02T04:48:36.398Z,0.00
2019-02-02T04:49:36.375Z,0.00
2019-02-02T04:50:36.365Z,0.00
2019-02-02T04:51:36.347Z,0.00
2019-02-02T04:52:36.375Z,0.00
2019-02-02T04:53:36.311Z,0.00
2019-02-02T04:54:36.296Z,0.00
2019-02-02T04:55:36.278Z,0.00
2019-02-02T04:56:36.255Z,0.00
2019-02-02T04:57:36.236Z,0.00
2019-02-02T04:58:36.226Z,0.00
2019-02-02T04:59:36.208Z,0.00
2019-02-02T05:00:36.188Z,0.00
2019-02-02T05:01:36.167Z,0.00
2019-02-02T05:02:36.153Z,0.00
2019-02-02T05:03:36.137Z,0.00
2019-02-02T05:04:36.121Z,0.00
2019-02-02T05:05:36.097Z,0.00
2019-02-02T05:06:42.949Z,0.00
2019-02-02T05:07:36.067Z,0.00
2019-02-02T05:08:36.067Z,0.00
2019-02-02T05:09:36.028Z,0.00
2019-02-02T05:10:36.018Z,0.00
2019-02-02T05:11:35.997Z,0.00
2019-02-02T05:12:35.985Z,0.00
2019-02-02T05:13:35.971Z,0.00
2019-02-02T05:14:35.942Z,0.00
2019-02-02T05:15:35.926Z,0.00
2019-02-02T05:16:35.914Z,0.00
2019-02-02T05:17:35.899Z,0.00
2019-02-02T05:18:35.875Z,0.00
2019-02-02T05:19:35.861Z,0.00
2019-02-02T05:20:35.845Z,0.00
2019-02-02T05:21:35.832Z,0.00
2019-02-02T05:22:35.808Z,0.00
2019-02-02T05:23:35.788Z,0.00
2019-02-02T05:24:35.797Z,0.00
2019-02-02T05:25:35.754Z,0.00
2019-02-02T05:26:35.736Z,0.00
2019-02-02T05:27:35.721Z,0.00
2019-02-02T05:28:35.707Z,0.00
2019-02-02T05:29:41.643Z,0.00
2019-02-02T05:30:35.668Z,0.00
2019-02-02T05:31:35.643Z,0.00
2019-02-02T05:32:35.633Z,0.00
2019-02-02T05:33:35.616Z,0.00
2019-02-02T05:34:35.602Z,0.00
2019-02-02T05:35:35.586Z,0.00
2019-02-02T05:36:35.566Z,0.00
2019-02-02T05:37:35.553Z,0.00
2019-02-02T05:38:35.531Z,0.00
2019-02-02T05:39:35.512Z,0.00
2019-02-02T05:40:35.494Z,0.00
2019-02-02T05:41:35.479Z,0.00
2019-02-02T05:42:35.458Z,0.00
2019-02-02T05:43:35.441Z,0.00
2019-02-02T05:44:35.428Z,0.00
2019-02-02T05:45:35.408Z,0.00
2019-02-02T05:46:35.387Z,0.00
2019-02-02T05:47:35.365Z,0.00
2019-02-02T05:48:35.353Z,0.00
2019-02-02T05:49:35.337Z,0.00
2019-02-02T05:50:35.324Z,0.00
2019-02-02T05:51:35.300Z,0.00
2019-02-02T05:52:35.286Z,0.00
2019-02-02T05:53:35.268Z,0.00
2019-02-02T05:54:35.249Z,0.00
2019-02-02T05:55:35.231Z,0.00
2019-02-02T05:56:35.215Z,0.00
2019-02-02T05:57:35.194Z,0.00
2019-02-02T05:58:35.178Z,0.00
2019-02-02T05:59:35.164Z,0.00
2019-02-02T06:00:35.144Z,0.00
2019-02-02T06:01:35.130Z,0.00
2019-02-02T06:02:35.109Z,0.00
2019-02-02T06:03:35.091Z,0.00
2019-02-02T06:04:35.076Z,0.00
2019-02-02T06:05:35.059Z,0.00
2019-02-02T06:06:35.039Z,0.00
2019-02-02T06:07:35.023Z,0.00
2019-02-02T06:08:35.003Z,0.00
2019-02-02T06:09:34.983Z,0.00
2019-02-02T06:10:34.967Z,0.00
2019-02-02T06:11:34.955Z,0.00
2019-02-02T06:12:34.937Z,0.00
2019-02-02T06:13:34.915Z,0.00
2019-02-02T06:14:34.900Z,0.00
2019-02-02T06:15:34.886Z,0.00
2019-02-02T06:16:34.870Z,0.00
2019-02-02T06:17:34.850Z,0.00
2019-02-02T06:18:34.832Z,0.00
2019-02-02T06:19:34.818Z,0.00
2019-02-02T06:20:34.794Z,0.00
2019-02-02T06:21:34.781Z,0.00
2019-02-02T06:22:34.765Z,0.00
2019-02-02T06:23:34.757Z,0.00
2019-02-02T06:24:34.729Z,0.00
2019-02-02T06:25:34.723Z,0.00
2019-02-02T06:26:34.689Z,0.00
2019-02-02T06:27:34.671Z,0.00
2019-02-02T06:28:34.655Z,0.00
2019-02-02T06:29:34.637Z,0.00
2019-02-02T06:30:34.621Z,0.00
2019-02-02T06:31:34.614Z,0.00
2019-02-02T06:32:34.589Z,0.00
2019-02-02T06:33:34.572Z,0.00
2019-02-02T06:34:34.567Z,0.00
2019-02-02T06:35:34.534Z,0.00
2019-02-02T06:36:34.518Z,0.00
2019-02-02T06:37:34.495Z,0.00
2019-02-02T06:38:34.481Z,0.00
2019-02-02T06:39:34.467Z,0.00
2019-02-02T06:40:34.449Z,0.00
2019-02-02T06:41:34.427Z,0.00
2019-02-02T06:42:34.413Z,0.00
2019-02-02T06:43:34.403Z,0.00
2019-02-02T06:44:34.377Z,0.00
2019-02-02T06:45:34.365Z,0.00
2019-02-02T06:46:43.236Z,0.00
2019-02-02T06:47:34.334Z,0.00
2019-02-02T06:48:34.306Z,0.00
2019-02-02T06:49:34.292Z,0.00
2019-02-02T06:50:34.275Z,0.00
2019-02-02T06:51:34.263Z,0.00
2019-02-02T06:52:34.238Z,0.00
2019-02-02T06:53:34.217Z,0.00
2019-02-02T06:54:34.204Z,0.00
2019-02-02T06:55:34.183Z,0.00
2019-02-02T06:56:34.180Z,0.00
2019-02-02T06:57:34.149Z,0.00
2019-02-02T06:58:34.142Z,0.00
2019-02-02T06:59:34.116Z,0.00
2019-02-02T07:00:34.107Z,0.00
2019-02-02T07:01:34.083Z,0.00
2019-02-02T07:02:34.122Z,5.63
2019-02-02T07:03:34.045Z,5.63
2019-02-02T07:04:34.033Z,5.63
2019-02-02T07:05:34.092Z,5.63
2019-02-02T07:06:34.001Z,5.63
2019-02-02T07:07:33.979Z,5.63
2019-02-02T07:08:33.959Z,5.63
2019-02-02T07:09:33.946Z,5.63
2019-02-02T07:10:33.925Z,5.63
2019-02-02T07:11:33.910Z,5.63
2019-02-02T07:12:33.893Z,5.63
2019-02-02T07:13:35.981Z,11.25
2019-02-02T07:14:33.862Z,11.25
2019-02-02T07:15:33.840Z,11.25
2019-02-02T07:16:33.821Z,11.25
2019-02-02T07:17:33.806Z,11.25
2019-02-02T07:18:33.788Z,11.25
2019-02-02T07:19:33.771Z,16.88
2019-02-02T07:20:33.866Z,16.88
2019-02-02T07:21:33.732Z,16.88
2019-02-02T07:22:33.833Z,16.88
2019-02-02T07:23:33.710Z,22.50
2019-02-02T07:24:33.683Z,22.50
2019-02-02T07:25:33.668Z,22.50
2019-02-02T07:26:33.654Z,28.13
2019-02-02T07:27:33.633Z,28.13
2019-02-02T07:28:33.617Z,28.13
2019-02-02T07:29:33.595Z,33.75
2019-02-02T07:30:33.579Z,33.75
2019-02-02T07:31:33.565Z,33.75
2019-02-02T07:32:33.546Z,39.38
2019-02-02T07:33:33.527Z,39.38
2019-02-02T07:34:33.507Z,39.38
2019-02-02T07:35:33.490Z,39.38
2019-02-02T07:36:33.482Z,39.38
2019-02-02T07:37:33.457Z,45.00
2019-02-02T07:38:33.439Z,45.00
2019-02-02T07:39:33.426Z,45.00
2019-02-02T07:40:33.416Z,45.00
2019-02-02T07:41:33.387Z,45.00
2019-02-02T07:42:33.374Z,45.00
2019-02-02T07:43:33.355Z,45.00
2019-02-02T07:44:33.335Z,45.00
2019-02-02T07:45:33.319Z,39.38
2019-02-02T07:46:33.305Z,33.75
2019-02-02T07:47:33.302Z,33.75
2019-02-02T07:48:33.271Z,28.13
2019-02-02T07:49:33.255Z,28.13
2019-02-02T07:50:33.242Z,33.75
2019-02-02T07:51:33.222Z,33.75
2019-02-02T07:52:33.201Z,39.38
2019-02-02T07:53:33.184Z,39.38
2019-02-02T07:54:33.319Z,39.38
2019-02-02T07:55:33.151Z,39.38
2019-02-02T07:56:33.134Z,39.38
2019-02-02T07:57:33.119Z,39.38
2019-02-02T07:58:33.092Z,39.38
2019-02-02T07:59:33.084Z,39.38
2019-02-02T08:00:40.990Z,39.38
2019-02-02T08:01:33.049Z,45.00
2019-02-02T08:02:33.030Z,45.00
2019-02-02T08:03:33.016Z,50.63
2019-02-02T08:04:32.994Z,56.25
2019-02-02T08:05:32.979Z,61.88
2019-02-02T08:06:32.962Z,61.88
2019-02-02T08:07:32.945Z,67.50
2019-02-02T08:08:32.948Z,67.50
2019-02-02T08:09:32.911Z,67.50
2019-02-02T08:10:32.893Z,61.88
2019-02-02T08:11:32.876Z,56.25
2019-02-02T08:12:32.857Z,50.63
2019-02-02T08:13:32.848Z,50.63
2019-02-02T08:14:32.833Z,61.88
2019-02-02T08:15:32.811Z,67.50
2019-02-02T08:16:32.792Z,67.50
2019-02-02T08:17:32.786Z,73.13
2019-02-02T08:18:32.758Z,73.13
2019-02-02T08:19:32.746Z,73.13
2019-02-02T08:20:32.737Z,67.50
2019-02-02T08:21:32.713Z,61.88
2019-02-02T08:22:32.690Z,61.88
2019-02-02T08:23:32.683Z,56.25
2019-02-02T08:24:32.661Z,50.63
2019-02-02T08:25:32.643Z,45.00
2019-02-02T08:26:32.626Z,45.00
2019-02-02T08:27:32.610Z,45.00
2019-02-02T08:28:32.595Z,45.00
2019-02-02T08:29:32.578Z,39.38
2019-02-02T08:30:35.534Z,39.38
2019-02-02T08:31:32.546Z,39.38
2019-02-02T08:32:32.532Z,39.38
2019-02-02T08:33:32.510Z,39.38
2019-02-02T08:34:32.495Z,39.38
2019-02-02T08:35:32.477Z,39.38
2019-02-02T08:36:32.463Z,45.00
2019-02-02T08:37:32.448Z,45.00
2019-02-02T08:38:32.426Z,45.00
2019-02-02T08:39:32.409Z,50.63
2019-02-02T08:40:32.391Z,50.63
2019-02-02T08:41:32.379Z,50.63
2019-02-02T08:42:32.361Z,50.63
2019-02-02T08:43:32.352Z,50.63
2019-02-02T08:44:32.332Z,50.63
2019-02-02T08:45:32.320Z,56.25
2019-02-02T08:46:32.295Z,67.50
2019-02-02T08:47:32.806Z,67.50
2019-02-02T08:48:32.261Z,73.13
2019-02-02T08:49:32.356Z,67.50
2019-02-02T08:50:32.229Z,61.88
2019-02-02T08:51:32.213Z,61.88
2019-02-02T08:52:32.189Z,61.88
2019-02-02T08:53:32.240Z,56.25
2019-02-02T08:54:32.162Z,50.63
2019-02-02T08:55:32.178Z,50.63
2019-02-02T08:56:32.177Z,50.63
2019-02-02T08:57:32.113Z,50.63
2019-02-02T08:58:32.095Z,50.63
2019-02-02T08:59:32.084Z,50.63
2019-02-02T09:00:32.065Z,45.00
2019-02-02T09:01:32.042Z,39.38
2019-02-02T09:02:32.031Z,39.38
2019-02-02T09:03:32.119Z,39.38
2019-02-02T09:04:32.006Z,39.38
2019-02-02T09:05:32.030Z,39.38
2019-02-02T09:06:39.065Z,39.38
2019-02-02T09:07:31.949Z,39.38
2019-02-02T09:08:31.945Z,39.38
2019-02-02T09:09:31.912Z,33.75
2019-02-02T09:10:31.901Z,33.75
2019-02-02T09:11:31.880Z,33.75
2019-02-02T09:12:31.864Z,28.13
2019-02-02T09:13:31.849Z,28.13
2019-02-02T09:14:31.828Z,28.13
2019-02-02T09:15:31.813Z,28.13
2019-02-02T09:16:31.797Z,33.75
2019-02-02T09:17:31.782Z,33.75
2019-02-02T09:18:31.773Z,33.75
2019-02-02T09:19:31.752Z,39.38
2019-02-02T09:20:31.733Z,39.38
2019-02-02T09:21:31.715Z,45.00
2019-02-02T09:22:31.695Z,50.63
2019-02-02T09:23:31.691Z,56.25
2019-02-02T09:24:31.667Z,61.88
2019-02-02T09:25:31.655Z,67.50
2019-02-02T09:26:31.629Z,78.75
2019-02-02T09:27:31.619Z,84.38
2019-02-02T09:28:31.601Z,90.00
2019-02-02T09:29:31.581Z,95.63
2019-02-02T09:30:31.561Z,101.25
2019-02-02T09:31:31.554Z,106.88
2019-02-02T09:32:31.535Z,112.50
2019-02-02T09:33:31.522Z,106.88
2019-02-02T09:34:31.504Z,101.25
2019-02-02T09:35:31.486Z,95.63
2019-02-02T09:36:31.481Z,90.00
2019-02-02T09:37:31.452Z,84.38
2019-02-02T09:38:31.441Z,84.38
2019-02-02T09:39:31.422Z,84.38
2019-02-02T09:40:31.412Z,90.00
2019-02-02T09:41:31.386Z,95.63
2019-02-02T09:42:31.366Z,101.25
2019-02-02T09:43:31.348Z,106.88
2019-02-02T09:44:31.333Z,106.88
2019-02-02T09:45:31.317Z,101.25
2019-02-02T09:46:31.305Z,101.25
2019-02-02T09:47:31.283Z,95.63
2019-02-02T09:48:31.278Z,90.00
2019-02-02T09:49:31.250Z,90.00
2019-02-02T09:50:31.232Z,90.00
2019-02-02T09:51:31.229Z,90.00
2019-02-02T09:52:31.195Z,95.63
2019-02-02T09:53:31.193Z,95.63
2019-02-02T09:54:31.169Z,95.63
2019-02-02T09:55:31.156Z,95.63
2019-02-02T09:56:31.139Z,95.63
2019-02-02T09:57:31.122Z,90.00
2019-02-02T09:58:31.107Z,90.00
2019-02-02T09:59:31.089Z,90.00
2019-02-02T10:00:31.112Z,95.63
2019-02-02T10:01:31.071Z,101.25
2019-02-02T10:02:31.046Z,95.63
2019-02-02T10:03:31.023Z,78.75
2019-02-02T10:04:31.001Z,73.13
2019-02-02T10:05:30.993Z,73.13
2019-02-02T10:06:30.973Z,73.13
2019-02-02T10:07:30.958Z,73.13
2019-02-02T10:08:30.939Z,84.38
2019-02-02T10:09:30.920Z,95.63
2019-02-02T10:10:30.911Z,95.63
2019-02-02T10:11:30.887Z,95.63
2019-02-02T10:12:30.878Z,95.63
2019-02-02T10:13:30.859Z,90.00
2019-02-02T10:14:30.841Z,84.38
2019-02-02T10:15:30.826Z,84.38
2019-02-02T10:16:30.809Z,78.75
2019-02-02T10:17:30.800Z,73.13
2019-02-02T10:18:30.788Z,67.50
2019-02-02T10:19:30.768Z,56.25
2019-02-02T10:20:30.747Z,45.00
2019-02-02T10:21:30.729Z,39.38
2019-02-02T10:22:30.731Z,39.38
2019-02-02T10:23:30.699Z,39.38
2019-02-02T10:24:30.681Z,39.38
2019-02-02T10:25:30.662Z,39.38
2019-02-02T10:26:30.647Z,45.00
2019-02-02T10:27:30.629Z,50.63
2019-02-02T10:28:30.637Z,50.63
2019-02-02T10:29:30.597Z,61.88
2019-02-02T10:30:30.584Z,73.13
2019-02-02T10:31:39.252Z,67.50
2019-02-02T10:32:30.553Z,67.50
2019-02-02T10:33:30.542Z,67.50
2019-02-02T10:34:30.517Z,61.88
2019-02-02T10:35:30.497Z,56.25
2019-02-02T10:36:30.487Z,61.88
2019-02-02T10:37:30.475Z,78.75
2019-02-02T10:38:30.456Z,90.00
2019-02-02T10:39:30.437Z,101.25
2019-02-02T10:40:30.502Z,101.25
2019-02-02T10:41:31.515Z,90.00
2019-02-02T10:42:30.394Z,95.63
2019-02-02T10:43:30.381Z,106.88
2019-02-02T10:44:30.361Z,112.50
2019-02-02T10:45:30.340Z,112.50
2019-02-02T10:46:30.322Z,101.25
2019-02-02T10:47:30.353Z,106.88
2019-02-02T10:48:30.298Z,106.88
2019-02-02T10:49:30.280Z,112.50
2019-02-02T10:50:30.259Z,118.13
2019-02-02T10:51:30.242Z,123.75
2019-02-02T10:52:30.229Z,118.13
2019-02-02T10:53:30.211Z,135.00
2019-02-02T10:54:30.198Z,123.75
2019-02-02T10:55:30.211Z,151.88
2019-02-02T10:56:30.163Z,146.25
2019-02-02T10:57:30.147Z,151.88
2019-02-02T10:58:30.201Z,146.25
2019-02-02T10:59:30.119Z,146.25
2019-02-02T11:00:30.100Z,140.63
2019-02-02T11:01:30.080Z,135.00
2019-02-02T11:02:30.068Z,118.13
2019-02-02T11:03:30.048Z,118.13
2019-02-02T11:04:30.168Z,112.50
2019-02-02T11:05:30.020Z,106.88
2019-02-02T11:06:30.164Z,101.25
2019-02-02T11:07:30.009Z,84.38
2019-02-02T11:08:30.005Z,73.13
2019-02-02T11:09:29.979Z,73.13
2019-02-02T11:10:29.964Z,106.88
2019-02-02T11:11:29.925Z,118.13
2019-02-02T11:12:29.925Z,106.88
2019-02-02T11:13:29.895Z,118.13
2019-02-02T11:14:30.023Z,140.63
2019-02-02T11:15:29.910Z,135.00
2019-02-02T11:16:29.852Z,123.75
2019-02-02T11:17:29.984Z,129.38
2019-02-02T11:18:29.829Z,135.00
2019-02-02T11:19:29.969Z,140.63
2019-02-02T11:20:29.834Z,157.50
2019-02-02T11:21:29.767Z,174.38
2019-02-02T11:22:29.764Z,163.13
2019-02-02T11:23:29.790Z,163.13
2019-02-02T11:24:29.721Z,151.88
2019-02-02T11:25:29.765Z,163.13
2019-02-02T11:26:29.736Z,168.75
2019-02-02T11:27:29.681Z,185.63
2019-02-02T11:28:29.696Z,174.38
2019-02-02T11:29:29.737Z,174.38
2019-02-02T11:30:29.639Z,174.38
2019-02-02T11:31:29.615Z,236.25
2019-02-02T11:32:29.599Z,247.50
2019-02-02T11:33:29.623Z,236.25
2019-02-02T11:34:29.572Z,174.38
2019-02-02T11:35:29.637Z,230.63
2019-02-02T11:36:29.546Z,258.75
2019-02-02T11:37:29.528Z,275.63
2019-02-02T11:38:29.503Z,303.75
2019-02-02T11:39:29.494Z,298.13
2019-02-02T11:40:29.477Z,275.63
2019-02-02T11:41:29.461Z,292.50
2019-02-02T11:42:29.447Z,225.00
2019-02-02T11:43:29.426Z,219.38
2019-02-02T11:44:29.418Z,388.13
2019-02-02T11:45:29.401Z,337.50
2019-02-02T11:46:29.395Z,399.38
2019-02-02T11:47:29.375Z,433.13
2019-02-02T11:48:29.361Z,427.50
2019-02-02T11:49:29.342Z,393.75
2019-02-02T11:50:29.324Z,427.50
2019-02-02T11:51:29.310Z,421.88
2019-02-02T11:52:29.298Z,405.00
2019-02-02T11:53:29.282Z,399.38
2019-02-02T11:54:29.275Z,388.13
2019-02-02T11:55:29.249Z,371.25
2019-02-02T11:56:29.238Z,371.25
2019-02-02T11:57:29.229Z,376.88
2019-02-02T11:58:29.215Z,365.63
2019-02-02T11:59:29.202Z,365.63
2019-02-02T12:00:29.185Z,360.00
2019-02-02T12:01:29.184Z,371.25
2019-02-02T12:02:29.158Z,360.00
2019-02-02T12:03:29.140Z,360.00
2019-02-02T12:04:29.129Z,348.75
2019-02-02T12:05:29.112Z,348.75
2019-02-02T12:06:29.096Z,354.38
2019-02-02T12:07:29.090Z,354.38
2019-02-02T12:08:29.080Z,348.75
2019-02-02T12:09:29.062Z,354.38
2019-02-02T12:10:29.046Z,343.13
2019-02-02T12:11:29.034Z,343.13
2019-02-02T12:12:29.021Z,343.13
2019-02-02T12:13:29.006Z,331.88
2019-02-02T12:14:29.032Z,320.63
2019-02-02T12:15:28.982Z,315.00
2019-02-02T12:16:29.069Z,320.63
2019-02-02T12:17:28.950Z,315.00
2019-02-02T12:18:28.937Z,320.63
2019-02-02T12:19:28.924Z,326.25
2019-02-02T12:20:28.946Z,315.00
2019-02-02T12:21:28.905Z,320.63
2019-02-02T12:22:28.888Z,326.25
2019-02-02T12:23:28.877Z,320.63
2019-02-02T12:24:28.860Z,331.88
2019-02-02T12:25:28.850Z,343.13
2019-02-02T12:26:28.833Z,331.88
2019-02-02T12:27:28.823Z,343.13
2019-02-02T12:28:28.809Z,343.13
2019-02-02T12:29:28.796Z,337.50
2019-02-02T12:30:28.783Z,331.88
2019-02-02T12:31:28.772Z,331.88
2019-02-02T12:32:28.756Z,337.50
2019-02-02T12:33:28.761Z,331.88
2019-02-02T12:34:28.734Z,326.25
2019-02-02T12:35:28.726Z,337.50
2019-02-02T12:36:28.710Z,326.25
2019-02-02T12:37:28.695Z,337.50
2019-02-02T12:38:28.689Z,135.00
2019-02-02T12:39:28.673Z,213.75
2019-02-02T12:40:28.658Z,253.13
2019-02-02T12:41:28.651Z,191.25
2019-02-02T12:42:28.631Z,264.38
2019-02-02T12:43:28.623Z,315.00
2019-02-02T12:44:28.611Z,376.88
2019-02-02T12:45:28.593Z,157.50
2019-02-02T12:46:28.582Z,247.50
2019-02-02T12:47:28.572Z,298.13
2019-02-02T12:48:28.564Z,348.75
2019-02-02T12:49:28.549Z,399.38
2019-02-02T12:50:28.538Z,416.25
2019-02-02T12:51:28.521Z,416.25
2019-02-02T12:52:28.516Z,410.63
2019-02-02T12:53:28.508Z,405.00
2019-02-02T12:54:28.489Z,405.00
2019-02-02T12:55:28.480Z,399.38
2019-02-02T12:56:28.462Z,399.38
2019-02-02T12:57:28.452Z,399.38
2019-02-02T12:58:28.443Z,399.38
2019-02-02T12:59:28.428Z,393.75
2019-02-02T13:00:28.416Z,393.75
2019-02-02T13:01:28.411Z,388.13